Estación Meteorológica Peña el Pijo (Robertgarden) [ 01/30/23 15:42:59 CET ]

Fecha Hora Presion(HPa) Temp (°C) Humedad % Rocio (°C) Viento ( m/s) Direccion Lluvia 1Hora(mm) Lluvia 24H(mm) LLuvia Total(mm)
2012-Oct-16 01:01:13 1010.200 4.9 81 1.9         178.19
2012-Oct-16 02:01:13 1009.800 4.1 82 1.3         178.19
2012-Oct-16 03:08:13 1009.900 3.6 84 1.1         178.19
2012-Oct-16 04:01:14 1009.800 3.1 85 0.8         178.19
2012-Oct-16 05:01:16 1009.500 2.7 86 0.6         178.19
2012-Oct-16 06:01:14 1009.500 2.4 86 0.3         178.19
2012-Oct-16 07:01:15 1009.500 1.9 87 -0.1         178.19
2012-Oct-16 08:01:16 1009.600 1.5 87 -0.5         178.19
2012-Oct-16 09:01:13 1010.000 1.8 87 -0.2         178.19
2012-Oct-16 10:01:14 1010.800 8.1 76 4.1         178.19
2012-Oct-16 11:01:12 1010.500 15.1 45 3.2         178.19
2012-Oct-16 12:01:12 1010.400 16.4 41 3.1         178.19
2012-Oct-16 13:01:14 1010.500 20.0 32 2.7         178.19
2012-Oct-16 14:01:16 1009.700 22.7 28 3.1         178.19
2012-Oct-16 15:01:12 1009.100 23.3 30 4.8         178.19
2012-Oct-16 16:01:12 1008.400 24.6 29 5.4         178.19
2012-Oct-16 17:01:18 1007.900 25.1 27 4.6         178.19
2012-Oct-16 18:01:16 1007.800 21.5 34 4.9         178.19
2012-Oct-16 19:01:16 1008.300 17.6 44 5.1         178.19
2012-Oct-16 20:01:12 1008.500 13.5 55 4.6         178.19
2012-Oct-16 21:01:14 1009.000 10.5 66 4.4         178.19
2012-Oct-16 22:01:12 1009.100 8.8 71 3.8         178.19
2012-Oct-16 23:01:12 1009.200 7.6 76 3.6         178.19

Temperatura Máxima:25°    Temperatura Mínima:
Presión Máxima:1010.800 Hpa    Presión Mínima:1007.800 Hpa


Volver